Chimney Rock, North Carolina
Current Conditions -  °F | °C
As of 9:54 AM on Saturday 20 Dec 2014 (Local Time) from KAVL Reporting Station
Overcast Overcast  
Wind Chill: 36°   Ceiling: 4300
Heat Index: 40°   Visibility: 10mi
Dew Point: 35°   Wind: 6mph
Humidity: 83%   Direction: 180°S
Pressure: 30.21"   Gusts: NA
Location:  35.44°N, 82.25°W
Report Text: KAVL 201454Z 18005KT 10SM SCT031 OVC043 04/02 A3021 RMK AO2 SLP232 60000 T00440017 53009
Loading
Personal Weather Stations






























Interactive Weather Map New forecast layout! Learn more

10-Day Weather Forecast

Advertisements
Track Severe Weather on mobile